Aviation Digital Data Service (ADDS)

Output produced by METARs form (1604 UTC 20 May 2018)
found at http://aviationweather.gov/adds/metars/
 
KOEO 201555Z AUTO 07010G14KT 10SM CLR 15/M04 A3028 RMK AO2 T01541037